Baltic Betina — 9HDW8 — position and weather

sailwx.info

Track history (hours):
 
Tides and Currents Weather Stations Pressure Air Temp Water Temp Dewpoint Dewpoint Depression Visibility Wind Speed Wind Dir Waves Ship Positions

Baltic Betina

Last reported at 2014-Dec-21 23:14 UTC. Time now 2014-Dec-22 19:29 UTC.
Position N 58°02' E 008°21'.

Length 90 m; draft 4.5 m.

Type: Ship. MMSI: 215869000.

Date/timePositionNaut miles runAvg speedWind from/ knotsBaromVisibWave heightAir tempDewpointWater temp
2014-Dec-21 23:14N 58°02' E 008°21'17 9.1
2014-Dec-21 21:20N 57°60' E 008°54'7 8.0
2014-Dec-21 20:31N 57°59' E 009°06'41 8.3
2014-Dec-21 15:33N 57°49' E 010°21'11 9.6
2014-Dec-21 14:26N 57°47' E 010°41'1011.0
2014-Dec-21 13:33N 57°37' E 010°45'1312.1
2014-Dec-21 12:30N 57°24' E 010°45'1111.7
2014-Dec-21 11:32N 57°13' E 010°45'121 5.4
2014-Dec-20 13:19N 55°16' E 009°50'7 9.2
2014-Dec-20 12:33N 55°10' E 009°54'10 9.9
2014-Dec-20 11:32N 55°01' E 010°03'1010.7
2014-Dec-20 10:33N 54°53' E 010°15'1110.5
2014-Dec-20 09:33N 54°46' E 010°28'10 9.4
2014-Dec-20 08:29N 54°40' E 010°43'8 9.0
2014-Dec-20 07:33N 54°38' E 010°57'9 8.6
2014-Dec-20 06:33N 54°36' E 011°11'8 8.2
2014-Dec-20 05:33N 54°33' E 011°24'9 9.3
2014-Dec-20 04:33N 54°30' E 011°39'9 9.4
2014-Dec-20 03:33N 54°28' E 011°55'9 8.5
2014-Dec-20 02:33N 54°28' E 012°10'9 9.4
2014-Dec-20 01:33N 54°37' E 012°16'12 9.2
2014-Dec-20 00:18N 54°43' E 012°32'39 9.6
2014-Dec-19 20:12N 54°59' E 013°35'6 8.6
2014-Dec-19 19:33N 55°01' E 013°44'9 9.2
2014-Dec-19 18:33N 55°04' E 013°59'9 9.4
2014-Dec-19 17:33N 55°10' E 014°12'1010.4
2014-Dec-19 16:33N 55°17' E 014°24'1110.8
2014-Dec-19 15:33N 55°25' E 014°37'1110.7
2014-Dec-19 14:33N 55°31' E 014°53'1111.1
2014-Dec-19 13:33N 55°37' E 015°10'30810.5
2014-Dec-18 08:07N 59°37' E 021°10'610.8
2014-Dec-18 07:33N 59°42' E 021°17'1110.4
2014-Dec-18 06:33N 59°52' E 021°27'  
2014-Dec-15 12:33N 59°54' E 021°34'1110.9
2014-Dec-15 11:34N 59°46' E 021°21'1110.8
2014-Dec-15 10:33N 59°36' E 021°10'29811.5
2014-Dec-14 08:32N 55°40' E 015°30'1111.5
2014-Dec-14 07:33N 55°35' E 015°13'1211.6
2014-Dec-14 06:33N 55°29' E 014°55'1211.8
2014-Dec-14 05:33N 55°22' E 014°37'1212.1
2014-Dec-14 04:33N 55°13' E 014°23'1211.7
2014-Dec-14 03:33N 55°10' E 014°04'1211.8
2014-Dec-14 02:33N 55°12' E 013°43'1211.6
2014-Dec-14 01:33N 55°13' E 013°23'1211.7
2014-Dec-14 00:33N 55°15' E 013°02'1111.1
2014-Dec-13 23:33N 55°17' E 012°43'9 9.4
2014-Dec-13 22:33N 55°26' E 012°40'1111.3
2014-Dec-13 21:33N 55°37' E 012°42'1212.3
2014-Dec-13 20:33N 55°50' E 012°40'1211.7
2014-Dec-13 19:33N 56°01' E 012°38'1211.7
2014-Dec-13 18:33N 56°09' E 012°22'1111.3
2014-Dec-13 17:33N 56°06' E 012°03'1110.4
2014-Dec-13 16:32N 55°58' E 011°50'3 0.9
2014-Dec-13 13:11N 56°01' E 011°51'81 3.7
2014-Dec-12 15:25N 57°13' E 010°43'8 8.9
2014-Dec-12 14:33N 57°21' E 010°43'10 9.6
2014-Dec-12 13:32N 57°30' E 010°43'9 9.4
2014-Dec-12 12:33N 57°40' E 010°44'8 7.5
2014-Dec-12 11:32N 57°46' E 010°37'1212.4
2014-Dec-12 10:33N 57°45' E 010°15'12210.8
2014-Dec-11 23:15N 58°00' E 006°26'  
Track history (hours):
 
Tides and Currents Weather Stations Pressure Air Temp Water Temp Dewpoint Dewpoint Depression Visibility Wind Speed Wind Dir Waves Ship Positions

Baltic Betina

Last reported at 2014-Dec-21 23:14 UTC. Time now 2014-Dec-22 19:29 UTC.
Position N 58°02' E 008°21'.

Length 90 m; draft 4.5 m.

Type: Ship. MMSI: 215869000.

Date/timePositionNaut miles runAvg speedWind from/ knotsBaromVisibWave heightAir tempDewpointWater temp
2014-Dec-21 23:14N 58°02' E 008°21'17 9.1
2014-Dec-21 21:20N 57°60' E 008°54'7 8.0
2014-Dec-21 20:31N 57°59' E 009°06'41 8.3
2014-Dec-21 15:33N 57°49' E 010°21'11 9.6
2014-Dec-21 14:26N 57°47' E 010°41'1011.0
2014-Dec-21 13:33N 57°37' E 010°45'1312.1
2014-Dec-21 12:30N 57°24' E 010°45'1111.7
2014-Dec-21 11:32N 57°13' E 010°45'121 5.4
2014-Dec-20 13:19N 55°16' E 009°50'7 9.2
2014-Dec-20 12:33N 55°10' E 009°54'10 9.9
2014-Dec-20 11:32N 55°01' E 010°03'1010.7
2014-Dec-20 10:33N 54°53' E 010°15'1110.5
2014-Dec-20 09:33N 54°46' E 010°28'10 9.4
2014-Dec-20 08:29N 54°40' E 010°43'8 9.0
2014-Dec-20 07:33N 54°38' E 010°57'9 8.6
2014-Dec-20 06:33N 54°36' E 011°11'8 8.2
2014-Dec-20 05:33N 54°33' E 011°24'9 9.3
2014-Dec-20 04:33N 54°30' E 011°39'9 9.4
2014-Dec-20 03:33N 54°28' E 011°55'9 8.5
2014-Dec-20 02:33N 54°28' E 012°10'9 9.4
2014-Dec-20 01:33N 54°37' E 012°16'12 9.2
2014-Dec-20 00:18N 54°43' E 012°32'39 9.6
2014-Dec-19 20:12N 54°59' E 013°35'6 8.6
2014-Dec-19 19:33N 55°01' E 013°44'9 9.2
2014-Dec-19 18:33N 55°04' E 013°59'9 9.4
2014-Dec-19 17:33N 55°10' E 014°12'1010.4
2014-Dec-19 16:33N 55°17' E 014°24'1110.8
2014-Dec-19 15:33N 55°25' E 014°37'1110.7
2014-Dec-19 14:33N 55°31' E 014°53'1111.1
2014-Dec-19 13:33N 55°37' E 015°10'30810.5
2014-Dec-18 08:07N 59°37' E 021°10'610.8
2014-Dec-18 07:33N 59°42' E 021°17'1110.4
2014-Dec-18 06:33N 59°52' E 021°27'  
2014-Dec-15 12:33N 59°54' E 021°34'1110.9
2014-Dec-15 11:34N 59°46' E 021°21'1110.8
2014-Dec-15 10:33N 59°36' E 021°10'29811.5
2014-Dec-14 08:32N 55°40' E 015°30'1111.5
2014-Dec-14 07:33N 55°35' E 015°13'1211.6
2014-Dec-14 06:33N 55°29' E 014°55'1211.8
2014-Dec-14 05:33N 55°22' E 014°37'1212.1
2014-Dec-14 04:33N 55°13' E 014°23'1211.7
2014-Dec-14 03:33N 55°10' E 014°04'1211.8
2014-Dec-14 02:33N 55°12' E 013°43'1211.6
2014-Dec-14 01:33N 55°13' E 013°23'1211.7
2014-Dec-14 00:33N 55°15' E 013°02'1111.1
2014-Dec-13 23:33N 55°17' E 012°43'9 9.4
2014-Dec-13 22:33N 55°26' E 012°40'1111.3
2014-Dec-13 21:33N 55°37' E 012°42'1212.3
2014-Dec-13 20:33N 55°50' E 012°40'1211.7
2014-Dec-13 19:33N 56°01' E 012°38'1211.7
2014-Dec-13 18:33N 56°09' E 012°22'1111.3
2014-Dec-13 17:33N 56°06' E 012°03'1110.4
2014-Dec-13 16:32N 55°58' E 011°50'3 0.9
2014-Dec-13 13:11N 56°01' E 011°51'81 3.7
2014-Dec-12 15:25N 57°13' E 010°43'8 8.9
2014-Dec-12 14:33N 57°21' E 010°43'10 9.6
2014-Dec-12 13:32N 57°30' E 010°43'9 9.4
2014-Dec-12 12:33N 57°40' E 010°44'8 7.5
2014-Dec-12 11:32N 57°46' E 010°37'1212.4
2014-Dec-12 10:33N 57°45' E 010°15'12210.8
2014-Dec-11 23:15N 58°00' E 006°26'  

Dump ship's entire track history